createdAt,value
2018-07-09T00:00:18.265Z,101586.41
2018-07-09T00:02:47.401Z,101584.94
2018-07-09T00:05:16.533Z,101592.80
2018-07-09T00:07:46.470Z,101590.98
2018-07-09T00:10:25.609Z,101587.84
2018-07-09T00:12:54.736Z,101590.81
2018-07-09T00:15:23.841Z,101589.49
2018-07-09T00:17:52.978Z,101589.05
2018-07-09T00:20:22.073Z,101591.40
2018-07-09T00:22:51.194Z,101591.95
2018-07-09T00:25:20.292Z,101582.58
2018-07-09T00:27:49.382Z,101585.09
2018-07-09T00:30:18.540Z,101585.54
2018-07-09T00:32:47.681Z,101589.55
2018-07-09T00:35:16.801Z,101588.82
2018-07-09T00:37:45.909Z,101582.53
2018-07-09T00:40:15.029Z,101593.63
2018-07-09T00:42:44.469Z,101591.45
2018-07-09T00:45:13.613Z,101590.19
2018-07-09T00:47:42.756Z,101588.67
2018-07-09T00:50:11.936Z,101587.48
2018-07-09T00:52:41.060Z,101593.30
2018-07-09T00:55:10.189Z,101589.74
2018-07-09T00:57:39.529Z,101590.20
2018-07-09T01:00:08.657Z,101587.60
2018-07-09T01:02:37.769Z,101584.02
2018-07-09T01:05:07.165Z,101584.02
2018-07-09T01:07:36.695Z,101577.09
2018-07-09T01:10:05.834Z,101584.65
2018-07-09T01:12:34.927Z,101585.70
2018-07-09T01:15:04.066Z,101581.27
2018-07-09T01:17:33.181Z,101578.87
2018-07-09T01:20:02.284Z,101584.94
2018-07-09T01:22:31.427Z,101579.68
2018-07-09T01:25:00.520Z,101585.90
2018-07-09T01:27:29.622Z,101582.82
2018-07-09T01:30:05.065Z,101582.57
2018-07-09T01:32:34.537Z,101580.50
2018-07-09T01:35:03.718Z,101587.91
2018-07-09T01:37:32.833Z,101584.52
2018-07-09T01:40:01.950Z,101581.90
2018-07-09T01:42:31.054Z,101592.78
2018-07-09T01:45:00.130Z,101592.63
2018-07-09T01:47:29.209Z,101591.20
2018-07-09T01:49:58.285Z,101587.67
2018-07-09T01:52:27.601Z,101592.00
2018-07-09T01:54:56.693Z,101589.37
2018-07-09T01:57:25.765Z,101591.56
2018-07-09T01:59:54.865Z,101591.58
2018-07-09T02:02:24.189Z,101590.18
2018-07-09T02:04:53.301Z,101594.59
2018-07-09T02:07:22.405Z,101596.66
2018-07-09T02:09:51.876Z,101599.98
2018-07-09T02:12:21.009Z,101595.70
2018-07-09T02:14:50.098Z,101582.63
2018-07-09T02:17:19.197Z,101583.64
2018-07-09T02:19:48.333Z,101583.48
2018-07-09T02:22:17.458Z,101581.11
2018-07-09T02:24:46.541Z,101585.20
2018-07-09T02:27:15.629Z,101594.66
2018-07-09T02:29:44.723Z,101591.58
2018-07-09T02:32:13.809Z,101592.78
2018-07-09T02:34:42.901Z,101597.23
2018-07-09T02:37:11.997Z,101600.36
2018-07-09T02:39:41.077Z,101602.38
2018-07-09T02:42:10.193Z,101603.88
2018-07-09T02:44:39.270Z,101601.34
2018-07-09T02:47:08.365Z,101598.72
2018-07-09T02:49:37.449Z,101596.42
2018-07-09T02:52:06.597Z,101594.27
2018-07-09T02:54:35.692Z,101597.25
2018-07-09T02:57:04.818Z,101598.73
2018-07-09T02:59:33.898Z,101600.13
2018-07-09T03:02:03.033Z,101595.09
2018-07-09T03:04:32.118Z,101600.19
2018-07-09T03:07:01.214Z,101600.13
2018-07-09T03:09:30.281Z,101606.17
2018-07-09T03:11:59.377Z,101604.80
2018-07-09T03:14:28.473Z,101604.80
2018-07-09T03:16:57.578Z,101602.53
2018-07-09T03:19:26.657Z,101603.80
2018-07-09T03:21:55.765Z,101604.58
2018-07-09T03:24:24.853Z,101611.23
2018-07-09T03:26:53.949Z,101616.34
2018-07-09T03:29:23.021Z,101614.88
2018-07-09T03:31:52.105Z,101628.51
2018-07-09T03:34:21.205Z,101624.61
2018-07-09T03:36:50.297Z,101624.61
2018-07-09T03:39:19.424Z,101630.35
2018-07-09T03:41:48.525Z,101618.20
2018-07-09T03:44:17.625Z,101630.70
2018-07-09T03:46:46.697Z,101624.66
2018-07-09T03:49:15.800Z,101627.77
2018-07-09T03:51:44.905Z,101622.86
2018-07-09T03:54:14.068Z,101617.27
2018-07-09T03:56:43.162Z,101613.72
2018-07-09T03:59:12.253Z,101612.89
2018-07-09T04:01:41.329Z,101625.19
2018-07-09T04:04:10.434Z,101621.64
2018-07-09T04:06:39.531Z,101626.37
2018-07-09T04:09:08.643Z,101634.38
2018-07-09T04:11:37.717Z,101631.66
2018-07-09T04:14:06.801Z,101629.38
2018-07-09T04:16:35.969Z,101624.42
2018-07-09T04:19:05.094Z,101633.86
2018-07-09T04:21:34.198Z,101633.86
2018-07-09T04:24:03.297Z,101629.32
2018-07-09T04:26:32.394Z,101633.22
2018-07-09T04:29:01.472Z,101639.50
2018-07-09T04:31:30.564Z,101646.02
2018-07-09T04:33:59.681Z,101634.44
2018-07-09T04:36:28.790Z,101636.08
2018-07-09T04:38:57.869Z,101641.88
2018-07-09T04:41:26.961Z,101650.87
2018-07-09T04:43:56.062Z,101639.58
2018-07-09T04:46:25.225Z,101633.11
2018-07-09T04:48:54.312Z,101640.56
2018-07-09T04:51:23.405Z,101630.48
2018-07-09T04:53:52.529Z,101627.77
2018-07-09T04:56:21.605Z,101630.69
2018-07-09T04:58:50.847Z,101633.84
2018-07-09T05:01:19.929Z,101634.63
2018-07-09T05:03:49.060Z,101640.18
2018-07-09T05:06:18.145Z,101640.42
2018-07-09T05:08:47.242Z,101648.30
2018-07-09T05:11:16.341Z,101654.28
2018-07-09T05:13:45.433Z,101650.73
2018-07-09T05:16:14.517Z,101650.64
2018-07-09T05:18:43.607Z,101648.20
2018-07-09T05:21:12.685Z,101648.26
2018-07-09T05:23:41.765Z,101650.05
2018-07-09T05:26:10.873Z,101653.41
2018-07-09T05:28:39.961Z,101644.45
2018-07-09T05:31:09.060Z,101643.80
2018-07-09T05:33:38.146Z,101641.27
2018-07-09T05:36:07.278Z,101643.45
2018-07-09T05:38:36.397Z,101635.67
2018-07-09T05:41:05.510Z,101636.72
2018-07-09T05:43:35.473Z,101631.98
2018-07-09T05:46:05.313Z,101627.70
2018-07-09T05:48:34.477Z,101629.77
2018-07-09T05:51:03.590Z,101631.70
2018-07-09T05:53:32.699Z,101626.91
2018-07-09T05:56:01.805Z,101629.95
2018-07-09T05:58:30.906Z,101630.33
2018-07-09T06:01:00.103Z,101630.28
2018-07-09T06:03:29.191Z,101628.66
2018-07-09T06:05:58.305Z,101629.09
2018-07-09T06:08:27.465Z,101628.19
2018-07-09T06:10:56.561Z,101631.53
2018-07-09T06:13:25.687Z,101636.34
2018-07-09T06:15:54.766Z,101636.99
2018-07-09T06:18:23.941Z,101643.05
2018-07-09T06:20:53.037Z,101647.83
2018-07-09T06:23:22.549Z,101644.56
2018-07-09T06:25:51.666Z,101648.52
2018-07-09T06:28:20.797Z,101644.13
2018-07-09T06:30:49.865Z,101655.61
2018-07-09T06:33:18.953Z,101638.31
2018-07-09T06:35:48.068Z,101640.22
2018-07-09T06:38:17.162Z,101639.55
2018-07-09T06:40:46.309Z,101648.22
2018-07-09T06:43:15.427Z,101641.02
2018-07-09T06:45:44.549Z,101639.09
2018-07-09T06:48:13.682Z,101644.04
2018-07-09T06:50:42.746Z,101645.36
2018-07-09T06:53:11.937Z,101641.13
2018-07-09T06:55:41.085Z,101640.81
2018-07-09T06:58:10.207Z,101643.02
2018-07-09T07:00:39.365Z,101644.83
2018-07-09T07:03:08.466Z,101638.27
2018-07-09T07:05:37.561Z,101637.86
2018-07-09T07:08:06.677Z,101633.17
2018-07-09T07:10:35.777Z,101644.84
2018-07-09T07:13:04.890Z,101642.72
2018-07-09T07:15:34.047Z,101646.37
2018-07-09T07:18:03.144Z,101652.39
2018-07-09T07:20:32.231Z,101646.64
2018-07-09T07:23:01.355Z,101643.58
2018-07-09T07:25:30.475Z,101635.25
2018-07-09T07:27:59.657Z,101631.45
2018-07-09T07:30:28.801Z,101626.52
2018-07-09T07:32:57.933Z,101633.80
2018-07-09T07:35:27.074Z,101632.93
2018-07-09T07:37:56.219Z,101634.63
2018-07-09T07:40:25.309Z,101622.03
2018-07-09T07:42:54.425Z,101622.03
2018-07-09T07:45:23.520Z,101612.72
2018-07-09T07:47:52.638Z,101621.11
2018-07-09T07:50:21.752Z,101623.11
2018-07-09T07:52:51.233Z,101613.37
2018-07-09T07:55:20.344Z,101609.09
2018-07-09T07:57:49.455Z,101613.14
2018-07-09T08:00:18.553Z,101613.22
2018-07-09T08:02:47.708Z,101611.27
2018-07-09T08:05:16.809Z,101614.57
2018-07-09T08:07:45.918Z,101610.78
2018-07-09T08:10:15.010Z,101613.83
2018-07-09T08:13:27.174Z,101617.24
2018-07-09T08:15:13.218Z,101618.54
2018-07-09T08:17:42.477Z,101618.52
2018-07-09T08:20:11.613Z,101614.13
2018-07-09T08:22:40.730Z,101615.88
2018-07-09T08:25:09.888Z,101621.44
2018-07-09T08:27:38.897Z,101609.59
2018-07-09T08:30:08.214Z,101617.55
2018-07-09T08:32:37.362Z,101617.31
2018-07-09T08:35:06.513Z,101621.48
2018-07-09T08:37:36.146Z,101617.00
2018-07-09T08:40:05.353Z,101614.70
2018-07-09T08:42:34.477Z,101608.27
2018-07-09T08:45:03.655Z,101593.63
2018-07-09T08:47:32.828Z,101610.18
2018-07-09T08:50:01.983Z,101609.92
2018-07-09T08:52:31.117Z,101611.28
2018-07-09T08:55:00.237Z,101606.44
2018-07-09T08:57:29.382Z,101608.07
2018-07-09T08:59:58.495Z,101604.89
2018-07-09T09:02:27.586Z,101599.66
2018-07-09T09:04:56.677Z,101600.00
2018-07-09T09:07:25.813Z,101599.22
2018-07-09T09:09:54.897Z,101601.12
2018-07-09T09:12:23.998Z,101601.59
2018-07-09T09:14:53.264Z,101600.64
2018-07-09T09:17:22.360Z,101599.09
2018-07-09T09:19:51.476Z,101596.44
2018-07-09T09:22:20.597Z,101592.84
2018-07-09T09:24:49.692Z,101596.19
2018-07-09T09:27:18.789Z,101593.95
2018-07-09T09:29:47.909Z,101593.41
2018-07-09T09:32:17.009Z,101584.59
2018-07-09T09:34:46.105Z,101590.28
2018-07-09T09:37:15.241Z,101587.16
2018-07-09T09:39:44.340Z,101585.70
2018-07-09T09:42:13.465Z,101578.14
2018-07-09T09:44:42.714Z,101567.11
2018-07-09T09:47:11.793Z,101575.44
2018-07-09T09:49:40.937Z,101563.56
2018-07-09T09:52:10.089Z,101561.66
2018-07-09T09:54:39.189Z,101567.32
2018-07-09T09:57:08.357Z,101565.14
2018-07-09T09:59:37.476Z,101557.69
2018-07-09T10:02:06.603Z,101551.87
2018-07-09T10:04:35.724Z,101546.09
2018-07-09T10:07:04.838Z,101553.28
2018-07-09T10:09:33.961Z,101540.70
2018-07-09T10:12:03.059Z,101548.69
2018-07-09T10:14:33.006Z,101545.36
2018-07-09T10:17:03.327Z,101547.88
2018-07-09T10:19:32.441Z,101539.50
2018-07-09T10:22:01.558Z,101536.17
2018-07-09T10:24:30.678Z,101526.89
2018-07-09T10:26:59.765Z,101525.50
2018-07-09T10:29:29.115Z,101525.77
2018-07-09T10:31:58.265Z,101535.56
2018-07-09T10:34:27.356Z,101537.58
2018-07-09T10:36:56.482Z,101536.66
2018-07-09T10:39:25.582Z,101522.80
2018-07-09T10:41:54.668Z,101538.02
2018-07-09T10:44:24.133Z,101528.67
2018-07-09T10:46:53.230Z,101526.10
2018-07-09T10:49:22.389Z,101531.03
2018-07-09T10:51:51.521Z,101527.05
2018-07-09T10:54:20.600Z,101523.16
2018-07-09T10:56:49.728Z,101524.76
2018-07-09T10:59:18.837Z,101525.32
2018-07-09T11:01:47.946Z,101523.20
2018-07-09T11:04:17.061Z,101515.84
2018-07-09T11:06:46.175Z,101501.90
2018-07-09T11:09:15.325Z,101508.81
2018-07-09T11:11:44.433Z,101514.73
2018-07-09T11:14:13.533Z,101506.23
2018-07-09T11:16:42.624Z,101500.83
2018-07-09T11:19:11.758Z,101489.41
2018-07-09T11:21:40.920Z,101479.22
2018-07-09T11:24:09.954Z,101478.41
2018-07-09T11:26:39.045Z,101487.74
2018-07-09T11:29:08.155Z,101488.23
2018-07-09T11:31:37.291Z,101484.57
2018-07-09T11:34:06.418Z,101482.02
2018-07-09T11:36:35.565Z,101479.55
2018-07-09T11:39:05.442Z,101486.86
2018-07-09T11:41:34.553Z,101490.88
2018-07-09T11:44:03.697Z,101487.58
2018-07-09T11:46:32.801Z,101483.45
2018-07-09T11:49:01.885Z,101477.42
2018-07-09T11:51:31.045Z,101482.66
2018-07-09T11:54:00.177Z,101483.48
2018-07-09T11:56:29.286Z,101473.88
2018-07-09T11:58:58.441Z,101474.95
2018-07-09T12:01:27.521Z,101471.27
2018-07-09T12:03:56.671Z,101474.80
2018-07-09T12:06:25.801Z,101474.47
2018-07-09T12:08:54.905Z,101481.50
2018-07-09T12:11:24.021Z,101483.94
2018-07-09T12:13:53.089Z,101477.19
2018-07-09T12:16:22.200Z,101478.86
2018-07-09T12:18:51.334Z,101479.68
2018-07-09T12:21:20.464Z,101477.58
2018-07-09T12:23:49.562Z,101473.96
2018-07-09T12:26:18.713Z,101472.48
2018-07-09T12:28:47.865Z,101463.49
2018-07-09T12:31:16.914Z,101468.65
2018-07-09T12:33:46.037Z,101467.87
2018-07-09T12:36:15.207Z,101466.84
2018-07-09T12:38:44.255Z,101471.86
2018-07-09T12:41:13.345Z,101484.22
2018-07-09T12:43:42.511Z,101470.05
2018-07-09T12:46:11.565Z,101461.05
2018-07-09T12:48:40.653Z,101469.42
2018-07-09T12:51:09.737Z,101467.20
2018-07-09T12:53:38.873Z,101473.42
2018-07-09T12:56:07.975Z,101474.28
2018-07-09T12:58:37.097Z,101470.40
2018-07-09T13:01:06.288Z,101470.64
2018-07-09T13:03:35.418Z,101471.42
2018-07-09T13:06:04.510Z,101471.59
2018-07-09T13:08:33.624Z,101460.61
2018-07-09T13:11:02.803Z,101462.03
2018-07-09T13:13:31.913Z,101459.52
2018-07-09T13:16:01.053Z,101456.06
2018-07-09T13:18:30.172Z,101458.31
2018-07-09T13:21:00.113Z,101453.03
2018-07-09T13:23:29.217Z,101446.72
2018-07-09T13:25:58.333Z,101445.62
2018-07-09T13:28:27.453Z,101444.70
2018-07-09T13:30:56.625Z,101458.33
2018-07-09T13:33:25.810Z,101453.02
2018-07-09T13:35:55.980Z,101447.91
2018-07-09T13:38:25.161Z,101452.20
2018-07-09T13:40:54.318Z,101455.98
2018-07-09T13:43:23.456Z,101451.80
2018-07-09T13:45:52.569Z,101450.06
2018-07-09T13:48:21.723Z,101451.02
2018-07-09T13:50:50.917Z,101445.64
2018-07-09T13:53:20.105Z,101442.34
2018-07-09T13:55:49.261Z,101445.06
2018-07-09T13:58:18.444Z,101446.02
2018-07-09T14:00:47.509Z,101436.78
2018-07-09T14:03:16.594Z,101434.53
2018-07-09T14:05:45.695Z,101430.53
2018-07-09T14:08:14.812Z,101436.23
2018-07-09T14:10:43.942Z,101430.55
2018-07-09T14:13:13.087Z,101417.41
2018-07-09T14:15:42.177Z,101413.86
2018-07-09T14:18:11.373Z,101415.27
2018-07-09T14:20:45.375Z,101413.02
2018-07-09T14:23:16.822Z,101409.66
2018-07-09T14:25:46.338Z,101404.72
2018-07-09T14:28:15.430Z,101396.96
2018-07-09T14:30:44.532Z,101399.14
2018-07-09T14:33:13.634Z,101395.30
2018-07-09T14:35:43.330Z,101396.81
2018-07-09T14:38:12.511Z,101384.09
2018-07-09T14:40:41.638Z,101383.56
2018-07-09T14:43:10.736Z,101388.30
2018-07-09T14:45:39.837Z,101379.27
2018-07-09T14:48:09.185Z,101379.73
2018-07-09T14:50:38.303Z,101373.15
2018-07-09T14:53:07.377Z,101374.84
2018-07-09T14:55:36.493Z,101370.95
2018-07-09T14:58:05.609Z,101372.68
2018-07-09T15:00:34.753Z,101376.44
2018-07-09T15:03:03.923Z,101364.88
2018-07-09T15:05:33.053Z,101372.63
2018-07-09T15:08:02.169Z,101365.77
2018-07-09T15:10:31.270Z,101367.31
2018-07-09T15:13:00.365Z,101360.13
2018-07-09T15:15:29.450Z,101349.39
2018-07-09T15:17:58.589Z,101353.98
2018-07-09T15:20:27.680Z,101344.66
2018-07-09T15:22:56.782Z,101349.84
2018-07-09T15:25:25.881Z,101344.30
2018-07-09T15:27:54.985Z,101347.84
2018-07-09T15:30:24.066Z,101348.60
2018-07-09T15:32:53.180Z,101347.25
2018-07-09T15:35:22.290Z,101341.64
2018-07-09T15:37:51.393Z,101344.20
2018-07-09T15:40:20.524Z,101340.06
2018-07-09T15:42:49.605Z,101347.87
2018-07-09T15:45:18.690Z,101344.83
2018-07-09T15:47:47.803Z,101341.23
2018-07-09T15:50:16.919Z,101340.55
2018-07-09T15:52:46.049Z,101337.25
2018-07-09T15:55:15.185Z,101339.34
2018-07-09T15:57:44.910Z,101330.50
2018-07-09T16:00:14.008Z,101338.87
2018-07-09T16:02:43.129Z,101339.12
2018-07-09T16:05:12.229Z,101330.75
2018-07-09T16:07:41.417Z,101326.95
2018-07-09T16:10:10.522Z,101321.89
2018-07-09T16:12:39.652Z,101322.56
2018-07-09T16:15:08.781Z,101319.16
2018-07-09T16:17:37.892Z,101318.06
2018-07-09T16:20:07.037Z,101312.48
2018-07-09T16:22:36.149Z,101311.30
2018-07-09T16:25:05.256Z,101315.06
2018-07-09T16:27:34.385Z,101319.09
2018-07-09T16:30:03.553Z,101318.09
2018-07-09T16:32:32.662Z,101314.09
2018-07-09T16:35:01.737Z,101308.31
2018-07-09T16:37:30.934Z,101304.56
2018-07-09T16:40:00.019Z,101294.55
2018-07-09T16:42:29.120Z,101294.39
2018-07-09T16:44:58.173Z,101304.03
2018-07-09T16:47:27.347Z,101301.03
2018-07-09T16:49:56.458Z,101306.67
2018-07-09T16:52:25.561Z,101290.19
2018-07-09T16:54:54.754Z,101287.38
2018-07-09T16:57:23.789Z,101297.06
2018-07-09T16:59:52.885Z,101289.29
2018-07-09T17:02:22.001Z,101293.27
2018-07-09T17:04:51.097Z,101292.66
2018-07-09T17:07:20.190Z,101290.38
2018-07-09T17:09:49.285Z,101293.59
2018-07-09T17:12:18.391Z,101286.80
2018-07-09T17:14:47.501Z,101290.95
2018-07-09T17:17:16.600Z,101293.15
2018-07-09T17:19:45.701Z,101288.73
2018-07-09T17:22:14.785Z,101286.41
2018-07-09T17:24:43.909Z,101289.07
2018-07-09T17:27:13.022Z,101286.41
2018-07-09T17:29:42.091Z,101285.08
2018-07-09T17:32:11.336Z,101282.89
2018-07-09T17:34:40.361Z,101287.16
2018-07-09T17:37:09.473Z,101284.98
2018-07-09T17:39:38.573Z,101281.95
2018-07-09T17:42:07.705Z,101282.92
2018-07-09T17:44:36.813Z,101281.20
2018-07-09T17:47:05.989Z,101277.21
2018-07-09T17:49:35.290Z,101271.44
2018-07-09T17:52:04.393Z,101270.92
2018-07-09T17:54:33.481Z,101274.88
2018-07-09T17:57:02.621Z,101274.53
2018-07-09T17:59:31.717Z,101273.84
2018-07-09T18:02:02.753Z,101279.12
2018-07-09T18:04:31.884Z,101277.48
2018-07-09T18:07:00.993Z,101276.52
2018-07-09T18:09:30.090Z,101270.29
2018-07-09T18:11:59.213Z,101274.02
2018-07-09T18:14:28.321Z,101270.44
2018-07-09T18:16:57.415Z,101266.52
2018-07-09T18:19:26.542Z,101269.66
2018-07-09T18:21:55.633Z,101257.43
2018-07-09T18:24:24.793Z,101262.84
2018-07-09T18:26:53.931Z,101267.13
2018-07-09T18:29:23.061Z,101269.98
2018-07-09T18:31:52.221Z,101266.86
2018-07-09T18:34:21.377Z,101266.28
2018-07-09T18:36:53.901Z,101264.84
2018-07-09T18:39:23.122Z,101269.91
2018-07-09T18:41:52.346Z,101270.32
2018-07-09T18:44:21.558Z,101272.56
2018-07-09T18:46:50.681Z,101263.48
2018-07-09T18:49:19.791Z,101265.06
2018-07-09T18:51:48.925Z,101262.55
2018-07-09T18:54:18.109Z,101271.30
2018-07-09T18:56:47.253Z,101267.45
2018-07-09T18:59:16.337Z,101262.02
2018-07-09T19:01:45.452Z,101269.45
2018-07-09T19:04:14.551Z,101269.88
2018-07-09T19:06:56.482Z,101263.02
2018-07-09T19:09:26.409Z,101265.36
2018-07-09T19:11:56.117Z,101267.74
2018-07-09T19:14:42.453Z,101268.42
2018-07-09T19:17:50.906Z,101263.13
2018-07-09T19:21:32.194Z,101266.83
2018-07-09T19:24:00.667Z,101268.52
2018-07-09T19:26:28.672Z,101268.56
2018-07-09T19:28:56.674Z,101256.79
2018-07-09T19:31:24.667Z,101261.71
2018-07-09T19:33:52.674Z,101258.74
2018-07-09T19:36:20.672Z,101259.63
2018-07-09T19:38:48.689Z,101254.00
2018-07-09T19:41:16.725Z,101255.55
2018-07-09T19:43:44.725Z,101251.35
2018-07-09T19:46:12.717Z,101251.08
2018-07-09T19:48:40.722Z,101248.89
2018-07-09T19:51:08.725Z,101252.22
2018-07-09T19:53:36.713Z,101251.16
2018-07-09T19:56:04.721Z,101259.63
2018-07-09T19:58:32.707Z,101257.79
2018-07-09T20:01:00.697Z,101268.94
2018-07-09T20:03:28.766Z,101262.03
2018-07-09T20:05:56.688Z,101262.62
2018-07-09T20:08:30.921Z,101263.59
2018-07-09T20:11:04.238Z,101260.30
2018-07-09T20:13:51.535Z,101267.69
2018-07-09T20:16:24.893Z,101265.70
2018-07-09T20:18:53.520Z,101268.83
2018-07-09T20:21:21.527Z,101270.08
2018-07-09T20:23:49.532Z,101273.08
2018-07-09T20:26:17.519Z,101284.08
2018-07-09T20:28:45.501Z,101289.12
2018-07-09T20:31:13.511Z,101283.42
2018-07-09T20:33:41.519Z,101282.22
2018-07-09T20:36:09.517Z,101283.95
2018-07-09T20:38:37.509Z,101289.12
2018-07-09T20:41:05.521Z,101280.81
2018-07-09T20:43:33.597Z,101276.06
2018-07-09T20:46:01.593Z,101282.72
2018-07-09T20:48:29.603Z,101277.76
2018-07-09T20:50:57.601Z,101285.12
2018-07-09T20:53:25.617Z,101280.15
2018-07-09T20:55:53.637Z,101280.23
2018-07-09T20:58:21.633Z,101280.72
2018-07-09T21:00:49.625Z,101278.30
2018-07-09T21:03:17.621Z,101270.64
2018-07-09T21:05:45.614Z,101277.63
2018-07-09T21:08:13.613Z,101268.76
2018-07-09T21:10:41.601Z,101269.77
2018-07-09T21:13:09.601Z,101271.22
2018-07-09T21:15:37.660Z,101272.48
2018-07-09T21:18:05.601Z,101276.94
2018-07-09T21:20:33.590Z,101266.77
2018-07-09T21:23:01.590Z,101271.53
2018-07-09T21:25:29.577Z,101270.31
2018-07-09T21:27:57.577Z,101263.41
2018-07-09T21:30:25.599Z,101269.22
2018-07-09T21:32:53.617Z,101268.34
2018-07-09T21:35:21.606Z,101266.26
2018-07-09T21:37:49.679Z,101263.44
2018-07-09T21:40:17.613Z,101262.75
2018-07-09T21:42:45.605Z,101259.41
2018-07-09T21:45:13.609Z,101260.54
2018-07-09T21:47:41.597Z,101245.84
2018-07-09T21:50:09.610Z,101255.32
2018-07-09T21:52:37.597Z,101251.86
2018-07-09T21:55:05.865Z,101254.76
2018-07-09T21:57:34.205Z,101252.77
2018-07-09T22:00:02.206Z,101254.72
2018-07-09T22:02:30.213Z,101250.72
2018-07-09T22:04:58.198Z,101247.01
2018-07-09T22:07:26.189Z,101253.68
2018-07-09T22:09:54.181Z,101252.48
2018-07-09T22:12:22.186Z,101251.50
2018-07-09T22:14:50.190Z,101251.16
2018-07-09T22:17:18.182Z,101255.44
2018-07-09T22:19:46.173Z,101247.16
2018-07-09T22:22:14.173Z,101254.48
2018-07-09T22:24:42.204Z,101251.30
2018-07-09T22:27:10.167Z,101248.44
2018-07-09T22:29:38.152Z,101251.69
2018-07-09T22:32:07.268Z,101254.06
2018-07-09T22:34:36.352Z,101255.58
2018-07-09T22:37:05.460Z,101254.50
2018-07-09T22:39:34.561Z,101248.13
2018-07-09T22:42:03.681Z,101242.25
2018-07-09T22:44:32.801Z,101250.97
2018-07-09T22:47:01.912Z,101255.39
2018-07-09T22:49:31.021Z,101256.98
2018-07-09T22:52:00.126Z,101245.98
2018-07-09T22:54:29.264Z,101252.41
2018-07-09T22:56:58.375Z,101260.39
2018-07-09T22:59:27.499Z,101254.61
2018-07-09T23:01:56.600Z,101255.25
2018-07-09T23:04:25.697Z,101251.61
2018-07-09T23:06:54.821Z,101261.68
2018-07-09T23:11:44.809Z,101256.56
2018-07-09T23:14:38.994Z,101259.84
2018-07-09T23:17:19.329Z,101259.88
2018-07-09T23:22:02.973Z,101253.28
2018-07-09T23:24:30.965Z,101250.71
2018-07-09T23:26:59.317Z,101253.06
2018-07-09T23:29:27.309Z,101256.34
2018-07-09T23:31:55.332Z,101254.91
2018-07-09T23:34:23.325Z,101252.97
2018-07-09T23:36:51.321Z,101253.52
2018-07-09T23:39:19.325Z,101254.02
2018-07-09T23:41:47.352Z,101259.50
2018-07-09T23:44:15.353Z,101249.47
2018-07-09T23:46:43.350Z,101243.75
2018-07-09T23:49:11.341Z,101238.81
2018-07-09T23:51:39.335Z,101246.50
2018-07-09T23:54:07.326Z,101237.59
2018-07-09T23:56:48.249Z,101236.63
